Time;durP1;ratioP1;P1;durP2;ratioP2;P2;SDS_P1;SDS_P2;PMS_P1;PMS_P2;Temp;Humidity;BMP_temperature;BMP_pressure;BME280_temperature;BME280_humidity;BME280_pressure;Samples;Min_cycle;Max_cycle;Signal;HPM_P1;HPM_P2
2022/03/06 00:02:46;;;;;;;51.18;26.45;;;;;;;-0.99;66.71;100934.94;2177546;80;21091;-82
2022/03/06 00:05:49;;;;;;;47.53;23.15;;;;;;;-1.03;66.92;100942.53;2173568;80;21047;-81
2022/03/06 00:08:51;;;;;;;41.18;20.77;;;;;;;-1.08;67.10;100949.71;2177300;80;20974;-81
2022/03/06 00:11:54;;;;;;;48.35;22.52;;;;;;;-1.10;67.15;100947.62;2176300;80;21054;-80
2022/03/06 00:14:56;;;;;;;45.00;21.60;;;;;;;-1.09;67.15;100951.10;2172829;80;21043;-83
2022/03/06 00:17:57;;;;;;;42.33;21.75;;;;;;;-1.09;67.12;100945.43;2181497;80;21038;-81
2022/03/06 00:20:59;;;;;;;41.37;21.17;;;;;;;-1.07;67.11;100944.91;2175639;80;21011;-81
2022/03/06 00:24:02;;;;;;;44.15;23.52;;;;;;;-1.06;67.09;100943.98;2179038;80;21007;-81
2022/03/06 00:27:04;;;;;;;46.98;22.27;;;;;;;-1.03;67.11;100937.32;2179335;80;21502;-84
2022/03/06 00:30:07;;;;;;;46.68;23.40;;;;;;;-1.01;67.15;100944.61;2178010;80;21013;-81
2022/03/06 00:33:09;;;;;;;54.13;25.92;;;;;;;-0.99;67.21;100938.84;2181882;80;21517;-84
2022/03/06 00:36:12;;;;;;;44.03;22.55;;;;;;;-0.98;67.24;100930.60;2181606;80;20943;-80
2022/03/06 00:39:16;;;;;;;52.00;25.70;;;;;;;-1.01;67.29;100930.75;2175836;80;21077;-81
2022/03/06 00:42:18;;;;;;;45.20;24.07;;;;;;;-1.05;67.34;100933.09;2179804;80;21024;-81
2022/03/06 00:45:22;;;;;;;47.33;24.07;;;;;;;-1.02;67.42;100934.25;2173767;80;21068;-83
2022/03/06 00:48:27;;;;;;;48.83;24.30;;;;;;;-0.94;67.58;100931.66;2180366;80;21003;-80
2022/03/06 00:51:31;;;;;;;47.50;23.47;;;;;;;-0.82;67.53;100938.51;2181994;80;21078;-80
2022/03/06 00:54:33;;;;;;;48.70;23.47;;;;;;;-0.77;67.48;100933.92;2164320;80;21600;-82
2022/03/06 00:57:35;;;;;;;46.45;23.15;;;;;;;-0.69;67.44;100933.09;2173630;80;21074;-81
2022/03/06 01:00:39;;;;;;;47.50;22.87;;;;;;;-0.66;67.49;100930.34;2181280;80;21016;-84
2022/03/06 01:03:43;;;;;;;42.98;22.60;;;;;;;-0.63;67.54;100928.04;2176218;80;21008;-87
2022/03/06 01:06:45;;;;;;;46.55;22.52;;;;;;;-0.60;67.66;100932.64;2171094;80;21039;-81
2022/03/06 01:09:46;;;;;;;40.35;22.77;;;;;;;-0.52;67.68;100933.57;2178389;80;21036;-83
2022/03/06 01:12:50;;;;;;;47.60;22.85;;;;;;;-0.48;67.50;100924.23;2177181;80;21033;-81
2022/03/06 01:15:51;;;;;;;46.92;22.25;;;;;;;-0.46;67.47;100928.88;2174926;80;21090;-80
2022/03/06 01:18:53;;;;;;;44.85;23.40;;;;;;;-0.46;67.36;100924.97;2178648;80;21046;-87
2022/03/06 01:21:55;;;;;;;42.62;23.05;;;;;;;-0.49;67.50;100929.04;2183828;80;21556;-80
2022/03/06 01:24:56;;;;;;;40.03;22.37;;;;;;;-0.48;67.33;100920.32;2180372;80;21065;-81
2022/03/06 01:27:58;;;;;;;45.98;22.50;;;;;;;-0.54;67.13;100923.67;2179190;80;21072;-81
2022/03/06 01:31:00;;;;;;;37.78;20.90;;;;;;;-0.61;67.13;100924.91;2177584;80;21343;-80
2022/03/06 01:34:03;;;;;;;44.42;22.05;;;;;;;-0.64;67.12;100927.67;2178507;80;20993;-80
2022/03/06 01:37:05;;;;;;;39.63;19.95;;;;;;;-0.68;67.18;100924.34;2173482;80;21012;-81
2022/03/06 01:40:09;;;;;;;38.08;19.90;;;;;;;-0.77;67.12;100923.03;2177424;80;21057;-80
2022/03/06 01:43:11;;;;;;;43.05;20.17;;;;;;;-0.84;67.07;100916.45;2177532;80;21061;-80
2022/03/06 01:46:14;;;;;;;38.50;19.23;;;;;;;-0.91;67.01;100918.48;2177856;80;20958;-81
2022/03/06 01:49:17;;;;;;;36.95;20.40;;;;;;;-1.00;67.24;100912.89;2154340;81;21026;-80
2022/03/06 01:52:20;;;;;;;39.48;19.70;;;;;;;-1.06;67.37;100913.19;2177415;80;21055;-82
2022/03/06 01:55:24;;;;;;;36.85;20.37;;;;;;;-1.08;67.58;100917.16;2175088;80;20972;-80
2022/03/06 01:58:27;;;;;;;40.43;21.82;;;;;;;-1.10;67.65;100911.16;2175807;80;21073;-82
2022/03/06 02:01:34;;;;;;;39.15;20.05;;;;;;;-1.06;67.71;100917.94;2177142;80;21072;-84
2022/03/06 02:04:36;;;;;;;41.73;20.48;;;;;;;-1.03;67.72;100913.88;2176589;80;21628;-80
2022/03/06 02:07:38;;;;;;;40.15;21.33;;;;;;;-1.02;67.81;100919.46;2182788;80;20980;-81
2022/03/06 02:10:40;;;;;;;41.77;20.10;;;;;;;-1.01;67.95;100920.33;2176070;80;20987;-81
2022/03/06 02:13:43;;;;;;;43.05;21.40;;;;;;;-1.00;68.00;100922.84;2174870;80;21030;-81
2022/03/06 02:16:45;;;;;;;39.05;18.80;;;;;;;-0.98;68.05;100913.20;2175733;80;21015;-82
2022/03/06 02:20:01;;;;;;;36.73;20.82;;;;;;;-0.99;67.88;100916.70;2180237;80;21020;-79
2022/03/06 02:23:02;;;;;;;39.15;19.92;;;;;;;-0.99;67.84;100916.70;2179066;80;21033;-81
2022/03/06 02:26:06;;;;;;;38.53;19.98;;;;;;;-1.00;67.80;100913.73;2177044;80;21073;-81
2022/03/06 02:29:08;;;;;;;37.90;19.82;;;;;;;-0.99;67.85;100914.56;2193517;80;21041;-82
2022/03/06 02:32:13;;;;;;;41.80;21.20;;;;;;;-0.99;67.81;100919.77;2192476;80;21002;-79
2022/03/06 02:35:16;;;;;;;38.70;20.75;;;;;;;-0.94;67.89;100917.34;2190536;80;20974;-83
2022/03/06 02:38:19;;;;;;;35.38;19.15;;;;;;;-0.89;67.87;100911.08;2193075;80;21069;-81
2022/03/06 02:41:21;;;;;;;35.60;19.75;;;;;;;-0.87;67.71;100913.12;2191286;80;21343;-80
2022/03/06 02:44:26;;;;;;;38.53;19.75;;;;;;;-0.86;67.79;100913.53;2191484;80;21036;-80
2022/03/06 02:47:27;;;;;;;42.30;22.15;;;;;;;-0.81;67.88;100912.85;2193373;80;21055;-79
2022/03/06 02:50:33;;;;;;;38.70;20.68;;;;;;;-0.78;67.76;100908.80;2191510;80;21071;-79
2022/03/06 02:53:35;;;;;;;37.95;20.30;;;;;;;-0.77;67.73;100907.40;2192454;80;21573;-81
2022/03/06 02:56:37;;;;;;;39.40;21.27;;;;;;;-0.75;67.68;100907.34;2191666;80;21035;-79
2022/03/06 02:59:40;;;;;;;40.40;20.75;;;;;;;-0.74;67.71;100908.55;2192786;80;21040;-80
2022/03/06 03:02:42;;;;;;;41.37;20.40;;;;;;;-0.70;67.71;100913.17;2193469;80;21023;-79
2022/03/06 03:05:47;;;;;;;37.55;19.27;;;;;;;-0.68;67.73;100908.70;2190533;80;21049;-83
2022/03/06 03:08:48;;;;;;;37.95;20.30;;;;;;;-0.68;67.71;100911.31;2191864;80;21059;-80
2022/03/06 03:11:50;;;;;;;46.77;21.73;;;;;;;-0.71;67.75;100907.55;2190561;80;21061;-77
2022/03/06 03:14:52;;;;;;;40.38;21.93;;;;;;;-0.65;67.86;100903.34;2190976;80;21017;-79
2022/03/06 03:17:57;;;;;;;39.33;20.97;;;;;;;-0.60;67.88;100907.87;2192111;80;21021;-79
2022/03/06 03:20:59;;;;;;;39.90;21.62;;;;;;;-0.59;67.85;100904.37;2192533;80;21008;-78
2022/03/06 03:24:01;;;;;;;39.78;21.57;;;;;;;-0.55;67.91;100901.98;2189423;80;21049;-79
2022/03/06 03:27:03;;;;;;;42.05;21.73;;;;;;;-0.59;67.80;100904.80;2191491;80;21044;-78
2022/03/06 03:30:09;;;;;;;42.73;21.20;;;;;;;-0.64;67.82;100901.60;2185768;80;21070;-81
2022/03/06 03:33:12;;;;;;;40.28;20.35;;;;;;;-0.72;67.73;100908.48;2184384;80;21068;-79
2022/03/06 03:36:14;;;;;;;43.45;20.97;;;;;;;-0.81;67.63;100909.78;2181918;80;21051;-78
2022/03/06 03:39:16;;;;;;;36.33;18.85;;;;;;;-0.85;67.58;100909.99;2187129;80;20962;-80
2022/03/06 03:42:19;;;;;;;35.80;19.23;;;;;;;-0.90;67.57;100905.03;2184528;80;21017;-78
2022/03/06 03:45:21;;;;;;;41.15;19.90;;;;;;;-0.96;67.46;100905.30;2188535;80;21034;-79
2022/03/06 03:48:24;;;;;;;36.33;18.67;;;;;;;-1.04;67.41;100912.20;2184078;80;21033;-78
2022/03/06 03:51:26;;;;;;;36.73;19.23;;;;;;;-1.08;67.51;100908.03;2185954;80;20982;-80
2022/03/06 03:54:28;;;;;;;41.30;20.15;;;;;;;-1.11;67.19;100916.00;2183322;80;21467;-78
2022/03/06 03:57:29;;;;;;;45.28;22.02;;;;;;;-1.11;67.31;100910.79;2181710;80;21608;-80
2022/03/06 04:00:34;;;;;;;38.70;21.05;;;;;;;-1.09;67.32;100908.96;2187040;80;21002;-79
2022/03/06 04:03:35;;;;;;;47.20;24.37;;;;;;;-1.09;67.28;100916.78;2184178;80;21022;-80
2022/03/06 04:06:37;;;;;;;45.30;24.30;;;;;;;-1.10;67.34;100914.23;2185766;80;21049;-78
2022/03/06 04:09:38;;;;;;;43.90;22.20;;;;;;;-1.09;67.39;100922.45;2186657;80;21074;-78
2022/03/06 04:12:42;;;;;;;38.28;20.70;;;;;;;-1.12;67.50;100919.53;2182965;80;21050;-80
2022/03/06 04:15:45;;;;;;;38.13;19.95;;;;;;;-1.10;67.67;100919.44;2182360;80;21453;-79
2022/03/06 04:18:46;;;;;;;50.20;25.35;;;;;;;-1.12;67.72;100919.53;2181723;80;21072;-78
2022/03/06 04:21:48;;;;;;;42.93;22.80;;;;;;;-1.14;67.64;100922.19;2182525;80;21074;-80
2022/03/06 04:24:52;;;;;;;45.30;23.47;;;;;;;-1.12;67.62;100922.14;2182889;80;22441;-85
2022/03/06 04:27:54;;;;;;;45.98;21.93;;;;;;;-1.09;67.53;100923.75;2181063;80;21124;-81
2022/03/06 04:30:58;;;;;;;40.25;21.45;;;;;;;-1.08;67.62;100921.06;2181240;80;21026;-81
2022/03/06 04:34:01;;;;;;;42.25;21.05;;;;;;;-1.08;67.62;100924.97;2176183;80;20985;-80
2022/03/06 04:37:03;;;;;;;40.00;21.62;;;;;;;-1.03;67.69;100928.20;2177282;80;21005;-78
2022/03/06 04:40:05;;;;;;;44.65;22.42;;;;;;;-1.02;67.60;100915.55;2173837;80;21014;-78
2022/03/06 04:43:07;;;;;;;43.90;23.38;;;;;;;-1.02;67.66;100919.46;2172565;80;21122;-79
2022/03/06 04:46:09;;;;;;;39.80;21.27;;;;;;;-0.98;67.80;100911.91;2173127;80;22418;-80
2022/03/06 04:49:10;;;;;;;46.70;23.32;;;;;;;-0.96;67.70;100908.77;2176900;80;20986;-79
2022/03/06 04:52:12;;;;;;;42.40;22.77;;;;;;;-0.96;67.56;100914.41;2175807;80;20995;-82
2022/03/06 04:55:13;;;;;;;37.90;20.65;;;;;;;-0.95;67.51;100902.63;2178578;80;21014;-79
2022/03/06 04:58:15;;;;;;;35.35;19.32;;;;;;;-0.95;67.42;100913.05;2173552;80;21011;-81
2022/03/06 05:01:17;;;;;;;41.30;20.82;;;;;;;-1.01;67.35;100917.73;2174840;80;20967;-80
2022/03/06 05:04:18;;;;;;;37.17;21.68;;;;;;;-1.06;67.44;100914.03;2173741;80;21018;-79
2022/03/06 05:07:20;;;;;;;41.15;22.32;;;;;;;-1.05;67.49;100917.00;2173440;80;21049;-87
2022/03/06 05:10:22;;;;;;;41.58;21.20;;;;;;;-1.03;67.41;100915.64;2176694;80;20989;-79
2022/03/06 05:13:24;;;;;;;40.15;21.48;;;;;;;-1.01;67.41;100908.14;2173811;80;21043;-85
2022/03/06 05:16:26;;;;;;;39.70;21.23;;;;;;;-1.00;67.39;100915.03;2177190;80;21051;-78
2022/03/06 05:19:28;;;;;;;39.05;20.95;;;;;;;-0.99;67.36;100913.27;2179353;80;21050;-85
2022/03/06 05:22:29;;;;;;;41.10;20.95;;;;;;;-1.01;67.41;100917.26;2178568;80;21053;-79
2022/03/06 05:25:31;;;;;;;37.05;20.40;;;;;;;-0.97;67.43;100923.16;2175221;80;21089;-78
2022/03/06 05:28:33;;;;;;;37.42;20.60;;;;;;;-0.95;67.39;100918.73;2175512;80;21096;-80
2022/03/06 05:31:35;;;;;;;42.08;20.37;;;;;;;-0.93;67.40;100921.65;2179324;80;21064;-78
2022/03/06 05:34:36;;;;;;;42.88;21.75;;;;;;;-0.89;67.50;100926.25;2175909;80;21024;-80
2022/03/06 05:37:39;;;;;;;38.73;21.05;;;;;;;-0.83;67.68;100925.94;2180883;80;21642;-78
2022/03/06 05:40:41;;;;;;;39.40;20.97;;;;;;;-0.78;67.73;100929.64;2175295;80;21021;-79
2022/03/06 05:43:42;;;;;;;38.83;21.30;;;;;;;-0.73;67.69;100931.57;2174872;80;21022;-78
2022/03/06 05:46:44;;;;;;;39.98;21.42;;;;;;;-0.69;67.73;100938.31;2176265;80;20978;-81
2022/03/06 05:49:46;;;;;;;39.50;20.80;;;;;;;-0.63;67.90;100938.47;2177886;80;21093;-81
2022/03/06 05:52:50;;;;;;;39.92;20.65;;;;;;;-0.57;67.64;100934.25;2171825;80;21482;-78
2022/03/06 05:55:52;;;;;;;38.35;20.72;;;;;;;-0.59;67.40;100938.25;2175019;80;21015;-85
2022/03/06 05:58:54;;;;;;;35.25;20.15;;;;;;;-0.54;67.49;100936.70;2176475;80;21058;-79
2022/03/06 06:01:57;;;;;;;34.95;19.95;;;;;;;-0.52;67.27;100937.02;2176169;80;21087;-80
2022/03/06 06:04:59;;;;;;;36.50;20.68;;;;;;;-0.50;67.23;100938.26;2178245;80;21659;-80
2022/03/06 06:08:04;;;;;;;47.27;21.42;;;;;;;-0.48;67.07;100941.61;2181152;80;21522;-78
2022/03/06 06:11:08;;;;;;;38.38;19.82;;;;;;;-0.45;66.92;100936.27;2172939;80;20974;-76
2022/03/06 06:14:11;;;;;;;38.60;19.82;;;;;;;-0.44;66.91;100942.33;2175713;80;21075;-76
2022/03/06 06:17:13;;;;;;;42.40;21.50;;;;;;;-0.39;67.12;100942.48;2148938;80;21042;-76
2022/03/06 06:20:16;;;;;;;34.18;19.90;;;;;;;-0.34;67.25;100939.19;2177710;80;21045;-75
2022/03/06 06:23:20;;;;;;;37.58;20.55;;;;;;;-0.29;67.32;100940.23;2172942;80;21085;-74
2022/03/06 06:26:24;;;;;;;37.03;20.77;;;;;;;-0.27;67.18;100942.32;2179635;80;21093;-78
2022/03/06 06:29:25;;;;;;;39.27;21.33;;;;;;;-0.23;67.16;100936.02;2173718;80;21109;-79
2022/03/06 06:32:27;;;;;;;36.58;20.00;;;;;;;-0.19;66.89;100938.87;2179163;80;21041;-80
2022/03/06 06:35:32;;;;;;;37.40;20.75;;;;;;;-0.27;66.74;100937.94;2172721;80;21055;-78
2022/03/06 06:38:36;;;;;;;36.15;20.75;;;;;;;-0.32;66.52;100939.09;2170951;80;21059;-81
2022/03/06 06:41:39;;;;;;;35.30;20.50;;;;;;;-0.37;66.77;100934.56;2178032;80;21044;-79
2022/03/06 06:44:41;;;;;;;38.50;20.90;;;;;;;-0.29;66.84;100941.55;2181647;80;21105;-80
2022/03/06 06:47:43;;;;;;;34.25;19.75;;;;;;;-0.27;66.81;100931.89;2177356;80;21046;-80
2022/03/06 06:50:47;;;;;;;42.43;21.30;;;;;;;-0.31;66.70;100937.73;2174953;80;21084;-81
2022/03/06 06:53:48;;;;;;;38.50;20.57;;;;;;;-0.34;66.83;100933.10;2177831;80;21640;-81
2022/03/06 06:56:50;;;;;;;42.03;20.40;;;;;;;-0.27;66.64;100934.03;2177124;80;21568;-79
2022/03/06 06:59:52;;;;;;;40.75;21.27;;;;;;;-0.19;66.61;100930.20;2177222;80;21067;-80
2022/03/06 07:02:54;;;;;;;36.58;20.48;;;;;;;-0.12;66.55;100928.48;2176754;80;21061;-81
2022/03/06 07:05:57;;;;;;;42.78;20.88;;;;;;;-0.05;66.27;100935.09;2177678;80;21617;-81
2022/03/06 07:08:59;;;;;;;38.83;22.10;;;;;;;0.02;66.23;100936.91;2177212;80;20986;-80
2022/03/06 07:12:01;;;;;;;32.73;18.87;;;;;;;0.03;66.14;100935.14;2175659;80;21036;-81
2022/03/06 07:15:04;;;;;;;33.40;18.98;;;;;;;0.04;65.59;100938.15;2171639;80;21039;-80
2022/03/06 07:18:06;;;;;;;32.67;17.95;;;;;;;0.01;65.68;100938.31;2175908;80;21304;-81
2022/03/06 07:21:10;;;;;;;37.38;19.42;;;;;;;0.02;65.41;100934.77;2177308;80;21038;-81
2022/03/06 07:24:13;;;;;;;31.65;17.98;;;;;;;0.02;65.34;100941.29;2175891;80;21528;-81
2022/03/06 07:27:16;;;;;;;34.53;19.67;;;;;;;0.03;65.02;100944.27;2178530;80;21009;-81
2022/03/06 07:30:18;;;;;;;31.48;18.85;;;;;;;0.01;65.04;100938.31;2175505;80;21049;-83
2022/03/06 07:33:23;;;;;;;33.85;20.37;;;;;;;0.02;65.38;100939.52;2179177;80;21062;-81
2022/03/06 07:36:24;;;;;;;32.58;17.20;;;;;;;0.15;65.53;100941.05;2160258;80;21058;-80
2022/03/06 07:39:29;;;;;;;29.42;16.23;;;;;;;0.26;64.85;100939.19;2177348;80;21501;-81
2022/03/06 07:42:33;;;;;;;33.92;17.90;;;;;;;0.26;64.52;100941.33;2180077;80;21073;-79
2022/03/06 07:45:38;;;;;;;28.00;16.02;;;;;;;0.28;64.34;100943.38;2178841;80;21090;-77
2022/03/06 07:48:39;;;;;;;29.70;16.80;;;;;;;0.34;64.19;100946.99;2175102;80;21028;-79
2022/03/06 07:51:49;;;;;;;26.30;14.98;;;;;;;0.32;63.82;100940.16;2151320;80;21134;-77
2022/03/06 07:54:55;;;;;;;30.92;15.55;;;;;;;0.37;63.17;100949.44;2179466;80;21111;-79
2022/03/06 07:57:59;;;;;;;25.45;15.58;;;;;;;0.44;63.68;100942.95;2178896;80;21535;-79
2022/03/06 08:01:03;;;;;;;31.48;16.48;;;;;;;0.50;63.30;100940.94;2177709;80;21084;-79
2022/03/06 08:04:04;;;;;;;26.30;15.95;;;;;;;0.48;62.27;100938.86;2173743;80;21012;-79
2022/03/06 08:07:10;;;;;;;23.62;13.88;;;;;;;0.40;62.22;100933.61;2155773;80;21616;-82
2022/03/06 08:10:13;;;;;;;27.42;15.05;;;;;;;0.37;61.80;100937.69;2172236;80;22179;-80
2022/03/06 08:13:15;;;;;;;25.80;14.03;;;;;;;0.40;62.07;100932.77;2177785;80;21671;-81
2022/03/06 08:16:17;;;;;;;26.60;14.40;;;;;;;0.44;61.56;100932.50;2182240;80;21037;-81
2022/03/06 08:19:19;;;;;;;23.67;13.88;;;;;;;0.44;62.03;100935.11;2175191;80;21069;-81
2022/03/06 08:22:23;;;;;;;25.12;14.28;;;;;;;0.53;61.83;100928.55;2183055;80;21093;-82
2022/03/06 08:25:25;;;;;;;23.27;14.87;;;;;;;0.63;61.58;100934.98;2179368;80;21042;-82
2022/03/06 08:28:26;;;;;;;26.70;15.38;;;;;;;0.63;60.19;100933.67;2176374;80;21369;-82
2022/03/06 08:31:30;;;;;;;25.65;14.45;;;;;;;0.61;61.15;100931.59;2191833;80;21537;-81
2022/03/06 08:34:35;;;;;;;26.68;14.53;;;;;;;0.61;60.56;100931.59;2144029;80;21073;-81
2022/03/06 08:37:37;;;;;;;25.02;15.08;;;;;;;0.63;60.71;100934.98;2167632;80;21041;-83
2022/03/06 08:40:43;;;;;;;23.12;13.18;;;;;;;0.68;60.31;100933.44;2197101;80;21031;-81
2022/03/06 08:43:45;;;;;;;25.23;14.53;;;;;;;0.73;59.33;100924.86;2193142;80;21025;-81
2022/03/06 08:46:49;;;;;;;25.15;13.55;;;;;;;0.70;59.39;100932.86;2194129;80;21037;-82
2022/03/06 08:49:51;;;;;;;21.17;13.00;;;;;;;0.70;59.59;100930.25;2195472;80;21024;-82
2022/03/06 08:52:54;;;;;;;21.27;13.22;;;;;;;0.73;58.28;100930.55;2193031;80;21057;-82
2022/03/06 08:55:59;;;;;;;23.10;13.35;;;;;;;0.66;58.96;100930.89;2189441;80;21098;-82
2022/03/06 08:59:01;;;;;;;23.40;13.08;;;;;;;0.68;59.03;100924.29;2191301;80;21006;-82
2022/03/06 09:02:06;;;;;;;27.60;15.88;;;;;;;0.73;59.53;100924.86;2193873;80;21003;-82
2022/03/06 09:05:11;;;;;;;23.02;14.33;;;;;;;0.75;59.34;100933.93;2193462;80;21326;-82
2022/03/06 09:08:15;;;;;;;26.10;13.62;;;;;;;0.78;58.98;100929.84;2163061;80;21034;-83
2022/03/06 09:11:19;;;;;;;25.75;13.75;;;;;;;0.77;58.54;100931.61;2196444;80;21636;-81
2022/03/06 09:14:21;;;;;;;23.73;13.43;;;;;;;0.77;57.96;100931.61;2191318;80;21046;-84
2022/03/06 09:17:26;;;;;;;23.65;14.20;;;;;;;0.77;57.78;100926.39;2190915;80;21034;-79
2022/03/06 09:20:28;;;;;;;20.60;13.08;;;;;;;0.83;57.77;100931.27;2192906;80;21070;-84
2022/03/06 09:23:52;;;;;;;19.45;11.97;;;;;;;0.91;57.29;100932.64;2187607;80;21564;-74
2022/03/06 09:26:53;;;;;;;22.10;12.88;;;;;;;0.97;57.06;100936.21;2096707;83;21050;-80
2022/03/06 09:29:57;;;;;;;23.40;14.10;;;;;;;0.88;56.15;100935.79;2096041;84;21546;-81
2022/03/06 09:32:58;;;;;;;22.00;13.25;;;;;;;0.81;56.14;100932.28;2099434;83;21035;-80
2022/03/06 09:36:01;;;;;;;22.02;13.10;;;;;;;0.80;56.23;100932.75;2092885;84;21028;-80
2022/03/06 09:39:05;;;;;;;19.73;11.83;;;;;;;0.85;56.45;100935.13;2092439;83;21546;-82
2022/03/06 09:42:07;;;;;;;24.30;13.50;;;;;;;0.90;55.86;100943.52;2096811;83;21023;-79
2022/03/06 09:45:11;;;;;;;24.65;13.62;;;;;;;0.87;55.34;100939.34;2094404;83;21008;-77
2022/03/06 09:48:16;;;;;;;22.30;12.37;;;;;;;0.87;55.78;100940.64;2093103;84;21035;-80
2022/03/06 09:51:18;;;;;;;21.57;13.55;;;;;;;0.89;55.36;100945.30;2095052;83;20987;-79
2022/03/06 09:54:19;;;;;;;22.60;13.28;;;;;;;0.93;54.79;100933.37;2095957;83;20968;-78
2022/03/06 09:57:21;;;;;;;19.35;12.78;;;;;;;0.93;55.57;100941.21;2092981;83;21094;-80
2022/03/06 10:00:23;;;;;;;24.15;13.05;;;;;;;1.03;54.94;100942.39;2098231;83;21046;-81
2022/03/06 10:03:25;;;;;;;20.97;13.18;;;;;;;1.04;54.46;100931.87;2097995;83;21046;-79
2022/03/06 10:06:26;;;;;;;19.20;12.25;;;;;;;1.05;54.71;100943.16;2109660;83;21513;-79
2022/03/06 10:09:29;;;;;;;20.45;11.70;;;;;;;1.03;53.92;100942.39;2082558;83;20975;-80
2022/03/06 10:12:32;;;;;;;18.90;12.68;;;;;;;1.02;53.43;100938.11;2108832;83;21029;-79
2022/03/06 10:15:39;;;;;;;18.67;11.75;;;;;;;0.97;53.61;100944.89;2110513;83;21072;-80
2022/03/06 10:18:48;;;;;;;18.65;11.05;;;;;;;1.00;54.04;100940.80;2104082;83;21034;-80
2022/03/06 10:21:49;;;;;;;18.05;11.63;;;;;;;1.10;53.68;100939.36;2110118;83;21518;-79
2022/03/06 10:24:59;;;;;;;20.95;12.68;;;;;;;1.16;52.33;100933.42;2095073;83;21584;-81
2022/03/06 10:28:02;;;;;;;20.65;11.45;;;;;;;1.21;53.02;100929.62;2068588;83;21455;-80
2022/03/06 10:31:04;;;;;;;21.95;12.98;;;;;;;1.24;53.03;100934.67;2059171;83;21058;-83
2022/03/06 10:34:10;;;;;;;18.85;12.68;;;;;;;1.28;53.22;100941.39;2076981;83;20994;-81
2022/03/06 10:37:15;;;;;;;21.20;12.40;;;;;;;1.37;53.63;100942.64;2069790;83;20967;-78
2022/03/06 10:40:20;;;;;;;20.37;11.90;;;;;;;1.46;53.00;100937.34;2071385;83;21017;-79
2022/03/06 10:43:30;;;;;;;21.35;12.93;;;;;;;1.44;52.75;100931.38;2075801;83;21026;-79
2022/03/06 10:46:34;;;;;;;18.25;12.70;;;;;;;1.54;53.30;100927.28;2056282;83;21509;-81
2022/03/06 10:49:35;;;;;;;20.50;12.82;;;;;;;1.74;53.24;100926.12;2078294;83;21086;-81
2022/03/06 10:52:41;;;;;;;23.45;13.32;;;;;;;1.85;52.74;100923.70;2069934;83;21011;-78
2022/03/06 10:55:43;;;;;;;21.62;13.00;;;;;;;1.93;53.12;100924.56;2075235;83;21003;-78
2022/03/06 10:58:48;;;;;;;21.73;12.35;;;;;;;1.89;52.94;100919.99;2073275;83;21025;-81
2022/03/06 11:01:51;;;;;;;21.42;12.90;;;;;;;1.94;52.06;100914.46;2074987;83;21470;-80
2022/03/06 11:04:56;;;;;;;19.37;12.03;;;;;;;1.95;52.49;100912.23;2070326;83;21075;-80
2022/03/06 11:07:57;;;;;;;20.92;12.25;;;;;;;1.95;51.54;100917.48;2073116;83;21085;-78
2022/03/06 11:10:59;;;;;;;20.65;13.18;;;;;;;1.91;52.24;100908.94;2069873;83;21009;-80
2022/03/06 11:14:01;;;;;;;20.72;12.95;;;;;;;1.91;51.84;100905.02;2077922;83;21047;-79
2022/03/06 11:17:03;;;;;;;23.25;14.25;;;;;;;1.95;51.05;100906.53;2078089;83;21541;-79
2022/03/06 11:20:07;;;;;;;18.27;13.10;;;;;;;1.88;51.47;100903.89;2076227;83;21700;-79
2022/03/06 11:23:30;;;;;;;19.35;12.63;;;;;;;1.89;50.84;100903.45;2067158;83;21109;-77
2022/03/06 11:27:15;;;;;;;21.55;13.13;;;;;;;1.90;51.54;100895.49;2097554;83;21025;-81
2022/03/06 11:30:21;;;;;;;21.68;13.62;;;;;;;1.93;51.19;100892.69;2102822;82;21532;-80
2022/03/06 11:33:23;;;;;;;19.98;13.00;;;;;;;2.00;51.36;100892.70;2106955;83;20986;-80
2022/03/06 11:36:26;;;;;;;19.10;12.13;;;;;;;2.09;51.21;100878.22;2105673;82;20994;-82
2022/03/06 11:39:36;;;;;;;19.90;13.05;;;;;;;2.15;50.89;100880.45;2110626;83;21038;-79
2022/03/06 11:42:56;;;;;;;18.70;12.23;;;;;;;2.07;51.07;100871.38;2107709;83;21050;-80
2022/03/06 11:46:18;;;;;;;18.80;12.55;;;;;;;1.89;50.14;100871.58;2106004;82;21584;-81
2022/03/06 11:49:25;;;;;;;19.45;12.98;;;;;;;1.78;50.79;100865.67;2103989;83;21045;-84
2022/03/06 11:52:36;;;;;;;20.12;13.25;;;;;;;1.81;50.56;100869.05;2104255;82;21049;-81
2022/03/06 11:55:37;;;;;;;18.90;12.07;;;;;;;1.69;50.38;100864.92;2105472;83;20966;-82
2022/03/06 11:58:55;;;;;;;18.77;12.15;;;;;;;1.68;50.78;100864.53;2107558;82;21042;-81
2022/03/06 12:02:10;;;;;;;18.77;12.40;;;;;;;1.67;50.26;100864.64;2102668;83;21071;-81
2022/03/06 12:05:12;;;;;;;17.30;12.00;;;;;;;1.59;49.65;100866.39;2106903;83;21561;-81
2022/03/06 12:08:16;;;;;;;20.20;12.70;;;;;;;1.50;49.64;100853.86;2103955;83;21436;-82
2022/03/06 12:11:19;;;;;;;22.37;13.85;;;;;;;1.41;48.77;100853.08;2107158;83;21091;-84
2022/03/06 12:14:43;;;;;;;19.23;12.10;;;;;;;1.25;49.79;100851.84;2109461;83;21350;-82
2022/03/06 12:17:45;;;;;;;18.73;12.95;;;;;;;1.19;49.61;100846.97;2106952;83;21029;-83
2022/03/06 12:20:46;;;;;;;19.90;12.58;;;;;;;1.26;49.93;100848.28;2105694;83;21300;-81
2022/03/06 12:23:48;;;;;;;19.65;13.13;;;;;;;1.37;49.64;100842.44;2104083;83;21501;-81
2022/03/06 12:26:53;;;;;;;19.42;13.22;;;;;;;1.36;50.07;100842.06;2072594;84;21741;-80
2022/03/06 12:30:00;;;;;;;22.40;13.58;;;;;;;1.33;49.45;100842.61;2092550;84;22238;-78
2022/03/06 12:33:37;;;;;;;19.07;13.03;;;;;;;1.36;50.10;100835.06;2093153;84;21027;-82
2022/03/06 12:36:40;;;;;;;19.82;13.15;;;;;;;1.46;50.14;100841.41;2093884;84;21324;-82
2022/03/06 12:39:41;;;;;;;21.35;13.95;;;;;;;1.54;50.08;100834.42;2095578;83;21101;-82
2022/03/06 12:42:45;;;;;;;26.77;15.55;;;;;;;1.63;50.20;100833.03;2095478;83;21094;-82
2022/03/06 12:45:50;;;;;;;26.05;15.10;;;;;;;1.64;49.64;100822.96;2095907;83;21079;-79
2022/03/06 12:48:52;;;;;;;27.95;15.30;;;;;;;1.51;48.97;100821.06;2091917;83;21069;-82
2022/03/06 12:51:54;;;;;;;26.12;16.07;;;;;;;1.48;50.35;100823.86;2093108;83;21103;-80
2022/03/06 12:55:03;;;;;;;24.87;15.95;;;;;;;1.54;50.56;100820.88;2096372;83;20975;-80
2022/03/06 12:58:02;;;;;;;22.87;14.23;;;;;;;1.54;50.31;100828.72;2092822;83;21078;-82
2022/03/06 13:01:09;;;;;;;24.85;15.00;;;;;;;1.50;50.10;100816.77;2096845;83;21071;-78
2022/03/06 13:04:12;;;;;;;25.08;14.75;;;;;;;1.44;50.11;100818.92;2094734;83;21008;-81
2022/03/06 13:07:15;;;;;;;22.65;14.30;;;;;;;1.43;50.70;100825.06;2093651;83;21102;-77
2022/03/06 13:10:18;;;;;;;20.30;13.85;;;;;;;1.42;49.48;100822.09;2098566;83;21052;-81
2022/03/06 13:13:19;;;;;;;22.85;15.10;;;;;;;1.38;49.89;100825.80;2094579;83;21061;-80
2022/03/06 13:16:25;;;;;;;25.15;15.18;;;;;;;1.39;49.78;100827.50;2096381;83;20990;-77
2022/03/06 13:19:28;;;;;;;29.05;17.25;;;;;;;1.39;50.04;100821.80;2096550;83;21030;-84
2022/03/06 13:22:31;;;;;;;25.82;16.45;;;;;;;1.40;49.80;100816.94;2091241;83;21071;-78
2022/03/06 13:25:35;;;;;;;23.27;15.20;;;;;;;1.36;50.04;100814.14;2093234;83;21656;-78
2022/03/06 13:28:36;;;;;;;35.50;19.62;;;;;;;1.37;50.00;100813.67;2093476;83;21571;-81
2022/03/06 13:31:47;;;;;;;42.80;26.50;;;;;;;1.37;50.26;100815.81;2095498;83;21478;-81
2022/03/06 13:34:48;;;;;;;23.77;15.05;;;;;;;1.37;50.18;100813.20;2096177;83;21010;-81
2022/03/06 13:38:00;;;;;;;24.12;15.38;;;;;;;1.32;50.00;100810.00;2093015;83;21054;-76
2022/03/06 13:41:13;;;;;;;26.93;17.00;;;;;;;1.31;50.09;100810.95;2095127;83;20978;-81
2022/03/06 13:44:15;;;;;;;25.75;16.97;;;;;;;1.28;49.62;100819.81;2094704;83;21093;-82
2022/03/06 13:47:17;;;;;;;27.77;16.55;;;;;;;1.23;49.95;100816.63;2096680;83;21032;-81
2022/03/06 13:50:37;;;;;;;29.18;16.95;;;;;;;1.21;50.38;100823.73;2097811;83;21519;-77
2022/03/06 13:53:55;;;;;;;27.95;17.42;;;;;;;1.24;50.67;100819.63;2096481;83;20996;-81
2022/03/06 13:56:59;;;;;;;25.95;15.65;;;;;;;1.22;50.59;100816.25;2096725;83;21086;-80
2022/03/06 14:00:27;;;;;;;24.18;15.15;;;;;;;1.13;50.41;100812.87;2073781;84;21042;-80
2022/03/06 14:03:33;;;;;;;26.30;16.05;;;;;;;1.09;50.12;100812.19;2095980;83;21503;-81